sensor_id;sensor_type;location;lat;lon;timestamp;pressure;altitude;pressure_sealevel;temperature;humidity
38530;BME280;24301;54.332;48.386;2023-05-15T02:56:36;99395.50;;;11.31;76.53
38530;BME280;24301;54.332;48.386;2023-05-15T02:59:02;99402.53;;;11.29;77.67
38530;BME280;24301;54.332;48.386;2023-05-15T03:01:28;99392.19;;;11.10;79.48
38530;BME280;24301;54.332;48.386;2023-05-15T03:03:54;99399.22;;;11.06;79.99
38530;BME280;24301;54.332;48.386;2023-05-15T03:06:20;99401.03;;;11.03;81.03
38530;BME280;24301;54.332;48.386;2023-05-15T03:08:46;99409.00;;;10.93;81.20
38530;BME280;24301;54.332;48.386;2023-05-15T03:11:11;99401.16;;;10.90;82.58
38530;BME280;24301;54.332;48.386;2023-05-15T03:13:37;99410.75;;;10.96;84.35
38530;BME280;24301;54.332;48.386;2023-05-15T03:16:03;99406.31;;;11.03;84.86
38530;BME280;24301;54.332;48.386;2023-05-15T03:18:29;99407.91;;;11.16;84.99
38530;BME280;24301;54.332;48.386;2023-05-15T03:20:55;99408.72;;;11.25;84.83
38530;BME280;24301;54.332;48.386;2023-05-15T03:23:21;99406.88;;;11.31;82.70
38530;BME280;24301;54.332;48.386;2023-05-15T03:25:46;99410.31;;;11.40;81.57
38530;BME280;24301;54.332;48.386;2023-05-15T03:28:12;99420.69;;;11.52;80.75
38530;BME280;24301;54.332;48.386;2023-05-15T03:30:38;99409.06;;;11.70;79.32
38530;BME280;24301;54.332;48.386;2023-05-15T03:33:04;99410.81;;;11.71;76.88
38530;BME280;24301;54.332;48.386;2023-05-15T03:35:30;99407.19;;;11.82;74.62
38530;BME280;24301;54.332;48.386;2023-05-15T03:38:00;99417.53;;;11.96;70.30
38530;BME280;24301;54.332;48.386;2023-05-15T03:40:26;99408.69;;;12.03;69.57
38530;BME280;24301;54.332;48.386;2023-05-15T03:42:52;99403.09;;;12.26;68.43
38530;BME280;24301;54.332;48.386;2023-05-15T03:45:19;99419.66;;;12.34;67.29
38530;BME280;24301;54.332;48.386;2023-05-15T03:47:47;99419.78;;;12.83;67.68
38530;BME280;24301;54.332;48.386;2023-05-15T03:50:13;99409.44;;;13.21;66.49
38530;BME280;24301;54.332;48.386;2023-05-15T03:52:39;99417.56;;;14.01;63.68
38530;BME280;24301;54.332;48.386;2023-05-15T03:55:05;99412.03;;;15.56;60.62
38530;BME280;24301;54.332;48.386;2023-05-15T03:57:31;99419.66;;;16.84;56.16
38530;BME280;24301;54.332;48.386;2023-05-15T03:59:57;99415.28;;;18.32;53.49
38530;BME280;24301;54.332;48.386;2023-05-15T04:02:23;99422.94;;;19.27;48.78
38530;BME280;24301;54.332;48.386;2023-05-15T04:04:49;99400.44;;;19.53;45.35
38530;BME280;24301;54.332;48.386;2023-05-15T04:07:16;99406.25;;;19.43;43.29
38530;BME280;24301;54.332;48.386;2023-05-15T04:09:42;99400.66;;;20.27;42.90
38530;BME280;24301;54.332;48.386;2023-05-15T04:12:08;99410.81;;;20.38;40.51
38530;BME280;24301;54.332;48.386;2023-05-15T04:14:34;99416.66;;;20.83;38.84
38530;BME280;24301;54.332;48.386;2023-05-15T04:17:00;99411.56;;;20.96;37.46
38530;BME280;24301;54.332;48.386;2023-05-15T04:19:25;99419.81;;;20.91;37.08
38530;BME280;24301;54.332;48.386;2023-05-15T04:21:51;99411.09;;;21.05;37.26
38530;BME280;24301;54.332;48.386;2023-05-15T04:24:17;99433.16;;;21.27;36.33
38530;BME280;24301;54.332;48.386;2023-05-15T04:26:43;99404.97;;;21.72;36.24
38530;BME280;24301;54.332;48.386;2023-05-15T04:29:08;99403.13;;;22.38;34.58
38530;BME280;24301;54.332;48.386;2023-05-15T04:31:34;99409.25;;;22.73;33.88
38530;BME280;24301;54.332;48.386;2023-05-15T04:34:00;99407.44;;;22.57;34.08
38530;BME280;24301;54.332;48.386;2023-05-15T04:36:28;99421.63;;;22.75;33.80
38530;BME280;24301;54.332;48.386;2023-05-15T04:38:54;99413.66;;;23.04;33.63
38530;BME280;24301;54.332;48.386;2023-05-15T04:41:20;99409.72;;;23.10;33.18
38530;BME280;24301;54.332;48.386;2023-05-15T04:43:45;99413.47;;;22.77;33.20
38530;BME280;24301;54.332;48.386;2023-05-15T04:46:11;99414.81;;;23.45;32.52
38530;BME280;24301;54.332;48.386;2023-05-15T04:48:37;99415.72;;;23.75;32.19
38530;BME280;24301;54.332;48.386;2023-05-15T04:51:03;99416.56;;;24.04;31.19
38530;BME280;24301;54.332;48.386;2023-05-15T04:53:29;99419.81;;;23.51;31.11
38530;BME280;24301;54.332;48.386;2023-05-15T04:55:54;99409.09;;;23.21;31.70
38530;BME280;24301;54.332;48.386;2023-05-15T04:58:20;99426.81;;;24.27;31.11
38530;BME280;24301;54.332;48.386;2023-05-15T05:00:46;99419.03;;;24.91;29.13
38530;BME280;24301;54.332;48.386;2023-05-15T05:03:12;99424.53;;;24.48;28.67
38530;BME280;24301;54.332;48.386;2023-05-15T05:05:38;99419.84;;;24.79;29.09
38530;BME280;24301;54.332;48.386;2023-05-15T05:08:04;99412.84;;;24.34;29.06
38530;BME280;24301;54.332;48.386;2023-05-15T05:10:30;99414.34;;;24.11;28.99
38530;BME280;24301;54.332;48.386;2023-05-15T05:12:55;99412.75;;;23.65;29.90
38530;BME280;24301;54.332;48.386;2023-05-15T05:15:21;99415.28;;;23.95;29.51
38530;BME280;24301;54.332;48.386;2023-05-15T05:17:47;99411.97;;;24.06;29.09
38530;BME280;24301;54.332;48.386;2023-05-15T05:20:13;99427.84;;;24.24;29.56
38530;BME280;24301;54.332;48.386;2023-05-15T05:22:40;99420.56;;;23.39;29.88
38530;BME280;24301;54.332;48.386;2023-05-15T05:25:07;99422.03;;;23.59;30.49
38530;BME280;24301;54.332;48.386;2023-05-15T05:27:32;99423.25;;;24.11;29.85
38530;BME280;24301;54.332;48.386;2023-05-15T05:29:58;99423.38;;;24.37;29.17
38530;BME280;24301;54.332;48.386;2023-05-15T05:32:25;99428.25;;;24.18;29.47
38530;BME280;24301;54.332;48.386;2023-05-15T05:34:50;99433.59;;;24.87;29.39
38530;BME280;24301;54.332;48.386;2023-05-15T05:37:16;99425.84;;;25.36;28.61
38530;BME280;24301;54.332;48.386;2023-05-15T05:39:42;99422.22;;;25.63;28.30
38530;BME280;24301;54.332;48.386;2023-05-15T05:42:08;99417.41;;;25.68;28.07
38530;BME280;24301;54.332;48.386;2023-05-15T05:44:33;99412.38;;;26.01;27.32
38530;BME280;24301;54.332;48.386;2023-05-15T05:46:59;99419.16;;;26.06;27.24
38530;BME280;24301;54.332;48.386;2023-05-15T05:49:25;99416.31;;;26.95;27.03
38530;BME280;24301;54.332;48.386;2023-05-15T05:51:51;99422.22;;;27.12;26.85
38530;BME280;24301;54.332;48.386;2023-05-15T05:54:17;99427.16;;;28.22;25.77
38530;BME280;24301;54.332;48.386;2023-05-15T05:56:43;99428.25;;;28.43;25.01
38530;BME280;24301;54.332;48.386;2023-05-15T05:59:09;99419.44;;;28.18;25.29
38530;BME280;24301;54.332;48.386;2023-05-15T06:01:35;99431.00;;;28.52;24.60
38530;BME280;24301;54.332;48.386;2023-05-15T06:04:01;99422.25;;;28.16;24.19
38530;BME280;24301;54.332;48.386;2023-05-15T06:06:26;99420.69;;;26.72;25.79
38530;BME280;24301;54.332;48.386;2023-05-15T06:08:53;99434.69;;;26.16;26.74
38530;BME280;24301;54.332;48.386;2023-05-15T06:11:19;99433.31;;;25.84;27.01
38530;BME280;24301;54.332;48.386;2023-05-15T06:13:46;99428.91;;;23.92;28.53
38530;BME280;24301;54.332;48.386;2023-05-15T06:16:11;99444.22;;;24.61;28.89
38530;BME280;24301;54.332;48.386;2023-05-15T06:18:37;99426.28;;;25.43;27.77
38530;BME280;24301;54.332;48.386;2023-05-15T06:21:03;99435.34;;;24.19;28.87
38530;BME280;24301;54.332;48.386;2023-05-15T06:23:29;99435.16;;;24.07;29.82
38530;BME280;24301;54.332;48.386;2023-05-15T06:25:55;99438.75;;;24.77;28.95
38530;BME280;24301;54.332;48.386;2023-05-15T06:28:20;99432.31;;;26.24;27.10
38530;BME280;24301;54.332;48.386;2023-05-15T06:30:46;99435.41;;;27.39;25.87
38530;BME280;24301;54.332;48.386;2023-05-15T06:33:12;99438.53;;;26.86;25.38
38530;BME280;24301;54.332;48.386;2023-05-15T06:35:38;99432.59;;;25.69;26.70
38530;BME280;24301;54.332;48.386;2023-05-15T06:38:03;99441.19;;;25.74;27.03
38530;BME280;24301;54.332;48.386;2023-05-15T06:40:29;99439.22;;;25.89;26.97
38530;BME280;24301;54.332;48.386;2023-05-15T06:42:55;99428.84;;;26.83;26.14
38530;BME280;24301;54.332;48.386;2023-05-15T06:45:21;99427.41;;;24.72;27.63
38530;BME280;24301;54.332;48.386;2023-05-15T06:47:47;99431.28;;;22.62;30.30
38530;BME280;24301;54.332;48.386;2023-05-15T06:50:12;99429.38;;;23.56;30.44
38530;BME280;24301;54.332;48.386;2023-05-15T06:52:38;99426.25;;;23.78;29.73
38530;BME280;24301;54.332;48.386;2023-05-15T06:55:04;99426.88;;;23.38;30.10
38530;BME280;24301;54.332;48.386;2023-05-15T06:57:32;99434.59;;;24.02;30.09
38530;BME280;24301;54.332;48.386;2023-05-15T06:59:58;99431.22;;;26.14;27.22
38530;BME280;24301;54.332;48.386;2023-05-15T07:02:23;99449.56;;;27.54;26.00
38530;BME280;24301;54.332;48.386;2023-05-15T07:04:49;99434.59;;;28.53;24.23
38530;BME280;24301;54.332;48.386;2023-05-15T07:07:15;99433.00;;;28.94;23.19
38530;BME280;24301;54.332;48.386;2023-05-15T07:09:40;99434.03;;;27.22;23.25
38530;BME280;24301;54.332;48.386;2023-05-15T07:12:07;99434.72;;;25.64;25.38
38530;BME280;24301;54.332;48.386;2023-05-15T07:14:32;99433.97;;;24.95;26.40
38530;BME280;24301;54.332;48.386;2023-05-15T07:16:58;99436.22;;;24.74;26.69
38530;BME280;24301;54.332;48.386;2023-05-15T07:19:24;99434.41;;;25.68;26.27
38530;BME280;24301;54.332;48.386;2023-05-15T07:21:50;99443.63;;;26.78;25.31
38530;BME280;24301;54.332;48.386;2023-05-15T07:24:16;99452.59;;;27.03;24.37
38530;BME280;24301;54.332;48.386;2023-05-15T07:26:42;99427.28;;;27.28;23.92
38530;BME280;24301;54.332;48.386;2023-05-15T07:29:07;99432.34;;;26.97;23.84
38530;BME280;24301;54.332;48.386;2023-05-15T07:31:33;99432.81;;;27.27;24.18
38530;BME280;24301;54.332;48.386;2023-05-15T07:33:59;99435.69;;;27.01;24.29
38530;BME280;24301;54.332;48.386;2023-05-15T07:36:25;99437.16;;;27.05;24.00
38530;BME280;24301;54.332;48.386;2023-05-15T07:38:51;99425.06;;;26.11;24.28
38530;BME280;24301;54.332;48.386;2023-05-15T07:41:16;99431.56;;;26.09;25.14
38530;BME280;24301;54.332;48.386;2023-05-15T07:43:42;99433.31;;;26.47;24.49
38530;BME280;24301;54.332;48.386;2023-05-15T07:46:08;99431.22;;;26.01;24.53
38530;BME280;24301;54.332;48.386;2023-05-15T07:48:34;99432.63;;;26.81;24.39
38530;BME280;24301;54.332;48.386;2023-05-15T07:50:59;99440.19;;;25.88;23.96
38530;BME280;24301;54.332;48.386;2023-05-15T07:53:27;99435.13;;;25.45;24.72
38530;BME280;24301;54.332;48.386;2023-05-15T07:55:53;99437.91;;;24.62;24.91
38530;BME280;24301;54.332;48.386;2023-05-15T07:58:19;99425.94;;;24.26;25.83
38530;BME280;24301;54.332;48.386;2023-05-15T08:00:45;99428.78;;;23.05;27.23
38530;BME280;24301;54.332;48.386;2023-05-15T08:03:11;99427.06;;;22.58;27.68
38530;BME280;24301;54.332;48.386;2023-05-15T08:05:37;99446.28;;;22.32;28.71
38530;BME280;24301;54.332;48.386;2023-05-15T08:08:03;99439.91;;;21.34;30.47
38530;BME280;24301;54.332;48.386;2023-05-15T08:10:29;99435.22;;;20.67;31.28
38530;BME280;24301;54.332;48.386;2023-05-15T08:12:54;99448.06;;;19.61;32.16
38530;BME280;24301;54.332;48.386;2023-05-15T08:15:20;99436.03;;;17.98;35.24
38530;BME280;24301;54.332;48.386;2023-05-15T08:17:46;99436.63;;;17.57;36.13
38530;BME280;24301;54.332;48.386;2023-05-15T08:20:12;99437.06;;;17.70;36.30
38530;BME280;24301;54.332;48.386;2023-05-15T08:22:41;99438.91;;;17.68;35.88
38530;BME280;24301;54.332;48.386;2023-05-15T08:25:07;99436.66;;;17.32;36.53
38530;BME280;24301;54.332;48.386;2023-05-15T08:27:33;99430.69;;;17.25;36.87
38530;BME280;24301;54.332;48.386;2023-05-15T08:29:59;99434.72;;;16.83;37.77
38530;BME280;24301;54.332;48.386;2023-05-15T08:32:25;99436.59;;;16.52;39.05
38530;BME280;24301;54.332;48.386;2023-05-15T08:34:51;99431.25;;;16.24;39.38
38530;BME280;24301;54.332;48.386;2023-05-15T08:37:17;99432.28;;;15.90;39.91
38530;BME280;24301;54.332;48.386;2023-05-15T08:39:43;99436.31;;;15.72;40.74
38530;BME280;24301;54.332;48.386;2023-05-15T08:42:27;99433.34;;;15.83;40.84
38530;BME280;24301;54.332;48.386;2023-05-15T08:44:57;99428.34;;;16.03;41.04
38530;BME280;24301;54.332;48.386;2023-05-15T08:47:27;99421.16;;;16.08;40.83
38530;BME280;24301;54.332;48.386;2023-05-15T08:50:10;99427.50;;;16.03;41.85
38530;BME280;24301;54.332;48.386;2023-05-15T08:52:40;99424.00;;;16.31;41.31
38530;BME280;24301;54.332;48.386;2023-05-15T08:55:10;99437.53;;;16.50;40.75
38530;BME280;24301;54.332;48.386;2023-05-15T08:57:37;99411.56;;;16.04;40.22
38530;BME280;24301;54.332;48.386;2023-05-15T09:00:04;99416.47;;;16.17;40.31
38530;BME280;24301;54.332;48.386;2023-05-15T09:02:35;99426.94;;;16.21;39.47
38530;BME280;24301;54.332;48.386;2023-05-15T09:05:01;99404.38;;;16.36;39.55
38530;BME280;24301;54.332;48.386;2023-05-15T09:07:32;99411.75;;;16.55;39.11
38530;BME280;24301;54.332;48.386;2023-05-15T09:09:58;99406.06;;;16.66;38.46
38530;BME280;24301;54.332;48.386;2023-05-15T09:12:25;99418.81;;;16.83;38.39
38530;BME280;24301;54.332;48.386;2023-05-15T09:15:10;99425.06;;;17.09;37.92
38530;BME280;24301;54.332;48.386;2023-05-15T09:17:37;99417.56;;;16.93;37.35
38530;BME280;24301;54.332;48.386;2023-05-15T09:20:03;99428.28;;;16.63;37.68
38530;BME280;24301;54.332;48.386;2023-05-15T09:22:34;99408.66;;;16.69;38.26
38530;BME280;24301;54.332;48.386;2023-05-15T09:25:00;99417.25;;;16.76;38.25
38530;BME280;24301;54.332;48.386;2023-05-15T09:27:29;99413.28;;;16.89;38.04
38530;BME280;24301;54.332;48.386;2023-05-15T09:30:07;99419.00;;;16.77;37.84
38530;BME280;24301;54.332;48.386;2023-05-15T09:32:33;99403.38;;;16.67;38.62
38530;BME280;24301;54.332;48.386;2023-05-15T09:34:59;99417.66;;;16.63;38.14
38530;BME280;24301;54.332;48.386;2023-05-15T09:37:30;99412.66;;;16.54;39.25
38530;BME280;24301;54.332;48.386;2023-05-15T09:40:06;99417.78;;;17.14;39.35
38530;BME280;24301;54.332;48.386;2023-05-15T09:42:34;99414.19;;;17.41;37.67
38530;BME280;24301;54.332;48.386;2023-05-15T09:45:01;99405.53;;;17.35;38.59
38530;BME280;24301;54.332;48.386;2023-05-15T09:47:27;99407.72;;;17.24;39.31
38530;BME280;24301;54.332;48.386;2023-05-15T09:49:53;99414.63;;;17.53;39.28
38530;BME280;24301;54.332;48.386;2023-05-15T09:52:19;99413.25;;;17.91;39.10
38530;BME280;24301;54.332;48.386;2023-05-15T09:54:48;99399.22;;;17.87;39.38
38530;BME280;24301;54.332;48.386;2023-05-15T09:57:14;99404.72;;;17.83;39.38
38530;BME280;24301;54.332;48.386;2023-05-15T09:59:45;99405.91;;;17.24;40.24
38530;BME280;24301;54.332;48.386;2023-05-15T10:02:29;99406.72;;;17.27;40.56
38530;BME280;24301;54.332;48.386;2023-05-15T10:04:59;99403.88;;;17.33;40.58
38530;BME280;24301;54.332;48.386;2023-05-15T10:07:33;99394.97;;;17.34;41.20
38530;BME280;24301;54.332;48.386;2023-05-15T10:10:02;99412.88;;;17.02;41.50
38530;BME280;24301;54.332;48.386;2023-05-15T10:12:30;99413.53;;;17.08;41.21
38530;BME280;24301;54.332;48.386;2023-05-15T10:14:58;99396.31;;;17.20;41.38
38530;BME280;24301;54.332;48.386;2023-05-15T10:17:30;99400.81;;;16.91;41.56
38530;BME280;24301;54.332;48.386;2023-05-15T10:19:58;99400.16;;;16.85;42.03
38530;BME280;24301;54.332;48.386;2023-05-15T10:22:29;99390.22;;;16.64;43.04
38530;BME280;24301;54.332;48.386;2023-05-15T10:25:02;99387.47;;;16.67;43.05
38530;BME280;24301;54.332;48.386;2023-05-15T10:27:29;99398.78;;;16.73;42.50
38530;BME280;24301;54.332;48.386;2023-05-15T10:29:57;99381.09;;;16.73;42.13
38530;BME280;24301;54.332;48.386;2023-05-15T10:32:23;99378.91;;;16.59;42.86
38530;BME280;24301;54.332;48.386;2023-05-15T10:34:51;99384.81;;;16.67;42.93
38530;BME280;24301;54.332;48.386;2023-05-15T10:37:18;99395.84;;;16.82;42.99
38530;BME280;24301;54.332;48.386;2023-05-15T10:39:46;99389.28;;;16.10;46.25
38530;BME280;24301;54.332;48.386;2023-05-15T10:42:12;99414.56;;;15.92;46.07
38530;BME280;24301;54.332;48.386;2023-05-15T10:44:38;99393.63;;;15.83;46.96
38530;BME280;24301;54.332;48.386;2023-05-15T10:47:04;99411.94;;;15.90;45.79
38530;BME280;24301;54.332;48.386;2023-05-15T10:49:30;99391.66;;;15.89;46.09
38530;BME280;24301;54.332;48.386;2023-05-15T10:51:59;99417.09;;;15.97;46.12
38530;BME280;24301;54.332;48.386;2023-05-15T10:54:25;99395.00;;;15.96;46.36
38530;BME280;24301;54.332;48.386;2023-05-15T10:56:54;99392.50;;;16.20;46.23
38530;BME280;24301;54.332;48.386;2023-05-15T10:59:29;99398.50;;;16.55;46.21
38530;BME280;24301;54.332;48.386;2023-05-15T11:01:55;99387.53;;;16.09;45.72
38530;BME280;24301;54.332;48.386;2023-05-15T11:04:22;99390.38;;;15.71;47.39
38530;BME280;24301;54.332;48.386;2023-05-15T11:06:49;99402.66;;;15.44;46.68
38530;BME280;24301;54.332;48.386;2023-05-15T11:11:58;99375.75;;;15.89;47.36
38530;BME280;24301;54.332;48.386;2023-05-15T11:14:26;99395.09;;;15.93;48.02
38530;BME280;24301;54.332;48.386;2023-05-15T11:22:00;99388.47;;;15.76;48.81
38530;BME280;24301;54.332;48.386;2023-05-15T11:24:30;99389.16;;;15.83;48.69
38530;BME280;24301;54.332;48.386;2023-05-15T11:27:00;99379.97;;;15.65;48.20
38530;BME280;24301;54.332;48.386;2023-05-15T11:29:26;99368.69;;;15.58;48.61
38530;BME280;24301;54.332;48.386;2023-05-15T11:31:52;99366.22;;;15.52;49.54
38530;BME280;24301;54.332;48.386;2023-05-15T11:34:28;99369.16;;;15.43;48.66
38530;BME280;24301;54.332;48.386;2023-05-15T11:36:55;99396.59;;;15.38;48.81
38530;BME280;24301;54.332;48.386;2023-05-15T11:39:24;99379.53;;;15.17;49.33
38530;BME280;24301;54.332;48.386;2023-05-15T11:41:50;99372.50;;;15.16;49.26
38530;BME280;24301;54.332;48.386;2023-05-15T11:44:23;99376.72;;;14.90;49.62
38530;BME280;24301;54.332;48.386;2023-05-15T11:46:49;99368.13;;;14.82;49.46
38530;BME280;24301;54.332;48.386;2023-05-15T11:49:25;99360.31;;;14.76;49.16
38530;BME280;24301;54.332;48.386;2023-05-15T11:51:51;99360.84;;;14.54;50.44
38530;BME280;24301;54.332;48.386;2023-05-15T11:54:17;99362.50;;;14.58;51.13
38530;BME280;24301;54.332;48.386;2023-05-15T11:56:43;99360.03;;;14.50;50.17
38530;BME280;24301;54.332;48.386;2023-05-15T11:59:12;99362.78;;;14.46;50.65
38530;BME280;24301;54.332;48.386;2023-05-15T12:01:43;99368.25;;;14.40;51.71
38530;BME280;24301;54.332;48.386;2023-05-15T12:04:15;99354.22;;;14.36;51.18
38530;BME280;24301;54.332;48.386;2023-05-15T12:06:42;99356.84;;;14.36;51.10
38530;BME280;24301;54.332;48.386;2023-05-15T12:09:17;99358.22;;;14.54;51.34
38530;BME280;24301;54.332;48.386;2023-05-15T12:11:53;99359.13;;;14.88;50.74
38530;BME280;24301;54.332;48.386;2023-05-15T12:14:29;99359.00;;;14.94;50.79
38530;BME280;24301;54.332;48.386;2023-05-15T12:17:00;99352.66;;;15.00;50.05
38530;BME280;24301;54.332;48.386;2023-05-15T12:19:39;99357.09;;;14.98;49.37
38530;BME280;24301;54.332;48.386;2023-05-15T12:22:06;99346.44;;;15.01;49.02
38530;BME280;24301;54.332;48.386;2023-05-15T12:24:36;99328.72;;;15.04;48.05
38530;BME280;24301;54.332;48.386;2023-05-15T12:27:05;99331.34;;;15.04;46.67
38530;BME280;24301;54.332;48.386;2023-05-15T12:29:31;99326.78;;;15.11;45.82
38530;BME280;24301;54.332;48.386;2023-05-15T12:31:57;99321.72;;;15.02;46.14
38530;BME280;24301;54.332;48.386;2023-05-15T12:34:24;99337.03;;;14.90;46.96
38530;BME280;24301;54.332;48.386;2023-05-15T12:36:50;99334.84;;;14.72;47.44
38530;BME280;24301;54.332;48.386;2023-05-15T12:39:16;99335.88;;;14.66;47.89
38530;BME280;24301;54.332;48.386;2023-05-15T12:41:42;99336.44;;;14.79;46.41
38530;BME280;24301;54.332;48.386;2023-05-15T12:44:16;99327.25;;;14.92;45.82
38530;BME280;24301;54.332;48.386;2023-05-15T12:46:42;99335.13;;;14.96;45.66
38530;BME280;24301;54.332;48.386;2023-05-15T12:49:09;99336.19;;;14.88;46.94
38530;BME280;24301;54.332;48.386;2023-05-15T12:51:41;99335.28;;;14.89;48.15
38530;BME280;24301;54.332;48.386;2023-05-15T12:54:24;99336.66;;;14.71;49.58
38530;BME280;24301;54.332;48.386;2023-05-15T12:56:50;99336.41;;;14.44;50.49
38530;BME280;24301;54.332;48.386;2023-05-15T12:59:17;99343.53;;;14.41;51.54
38530;BME280;24301;54.332;48.386;2023-05-15T13:01:43;99337.41;;;14.39;51.98
38530;BME280;24301;54.332;48.386;2023-05-15T13:04:10;99333.31;;;14.25;52.75
38530;BME280;24301;54.332;48.386;2023-05-15T13:06:38;99344.03;;;14.20;53.87
38530;BME280;24301;54.332;48.386;2023-05-15T13:09:04;99332.50;;;14.23;53.87
38530;BME280;24301;54.332;48.386;2023-05-15T13:11:32;99336.44;;;14.43;53.36
38530;BME280;24301;54.332;48.386;2023-05-15T13:13:57;99329.25;;;14.48;53.50
38530;BME280;24301;54.332;48.386;2023-05-15T13:16:25;99340.19;;;14.69;53.61
38530;BME280;24301;54.332;48.386;2023-05-15T13:18:55;99336.59;;;14.73;53.76
38530;BME280;24301;54.332;48.386;2023-05-15T13:21:22;99345.97;;;14.85;53.74
38530;BME280;24301;54.332;48.386;2023-05-15T13:23:50;99341.66;;;14.82;53.67
38530;BME280;24301;54.332;48.386;2023-05-15T13:26:16;99347.22;;;14.70;54.44
38530;BME280;24301;54.332;48.386;2023-05-15T13:28:42;99347.06;;;14.41;56.79
38530;BME280;24301;54.332;48.386;2023-05-15T13:31:08;99337.34;;;14.42;57.86
38530;BME280;24301;54.332;48.386;2023-05-15T13:33:34;99337.06;;;14.54;57.05
38530;BME280;24301;54.332;48.386;2023-05-15T13:36:00;99332.53;;;14.58;56.46
38530;BME280;24301;54.332;48.386;2023-05-15T13:38:26;99327.84;;;14.69;55.42
38530;BME280;24301;54.332;48.386;2023-05-15T13:40:55;99328.22;;;14.55;53.81
38530;BME280;24301;54.332;48.386;2023-05-15T13:43:21;99325.91;;;14.41;54.55
38530;BME280;24301;54.332;48.386;2023-05-15T13:45:47;99337.66;;;14.29;55.03
38530;BME280;24301;54.332;48.386;2023-05-15T13:48:14;99332.41;;;14.26;55.22
38530;BME280;24301;54.332;48.386;2023-05-15T13:50:44;99329.56;;;14.35;55.83
38530;BME280;24301;54.332;48.386;2023-05-15T13:53:13;99332.06;;;14.42;54.94
38530;BME280;24301;54.332;48.386;2023-05-15T13:55:43;99330.31;;;14.41;53.73
38530;BME280;24301;54.332;48.386;2023-05-15T13:58:13;99332.97;;;14.41;53.64
38530;BME280;24301;54.332;48.386;2023-05-15T14:00:42;99346.03;;;14.47;53.90
38530;BME280;24301;54.332;48.386;2023-05-15T14:03:08;99340.63;;;14.51;52.79
38530;BME280;24301;54.332;48.386;2023-05-15T14:05:34;99333.84;;;14.76;52.92
38530;BME280;24301;54.332;48.386;2023-05-15T14:08:00;99342.47;;;14.84;53.31
38530;BME280;24301;54.332;48.386;2023-05-15T14:10:26;99349.97;;;15.01;52.62
38530;BME280;24301;54.332;48.386;2023-05-15T14:12:52;99361.41;;;15.02;51.48
38530;BME280;24301;54.332;48.386;2023-05-15T14:15:17;99347.94;;;14.78;52.42
38530;BME280;24301;54.332;48.386;2023-05-15T14:17:43;99355.00;;;14.77;52.31
38530;BME280;24301;54.332;48.386;2023-05-15T14:20:11;99360.91;;;14.51;51.10
38530;BME280;24301;54.332;48.386;2023-05-15T14:22:38;99354.34;;;14.31;51.20
38530;BME280;24301;54.332;48.386;2023-05-15T14:25:05;99359.72;;;14.28;51.24
38530;BME280;24301;54.332;48.386;2023-05-15T14:27:31;99365.94;;;14.24;51.49
38530;BME280;24301;54.332;48.386;2023-05-15T14:29:57;99362.28;;;14.31;51.68
38530;BME280;24301;54.332;48.386;2023-05-15T14:32:23;99359.41;;;14.39;51.63
38530;BME280;24301;54.332;48.386;2023-05-15T14:34:49;99364.88;;;14.33;52.40
38530;BME280;24301;54.332;48.386;2023-05-15T14:37:17;99364.03;;;14.31;52.25
38530;BME280;24301;54.332;48.386;2023-05-15T14:39:43;99368.78;;;14.16;52.90
38530;BME280;24301;54.332;48.386;2023-05-15T14:42:09;99365.19;;;14.19;53.19
38530;BME280;24301;54.332;48.386;2023-05-15T14:44:35;99363.44;;;14.19;53.34
38530;BME280;24301;54.332;48.386;2023-05-15T14:47:08;99370.72;;;14.08;54.01
38530;BME280;24301;54.332;48.386;2023-05-15T14:49:35;99366.47;;;14.02;54.04
38530;BME280;24301;54.332;48.386;2023-05-15T14:52:03;99362.31;;;13.90;53.91
38530;BME280;24301;54.332;48.386;2023-05-15T14:54:28;99368.31;;;13.97;53.94
38530;BME280;24301;54.332;48.386;2023-05-15T14:56:54;99360.88;;;14.15;53.95
38530;BME280;24301;54.332;48.386;2023-05-15T14:59:20;99356.09;;;14.31;53.61
38530;BME280;24301;54.332;48.386;2023-05-15T15:01:46;99369.00;;;14.45;53.14
38530;BME280;24301;54.332;48.386;2023-05-15T15:04:12;99356.69;;;14.44;52.45
38530;BME280;24301;54.332;48.386;2023-05-15T15:06:37;99356.09;;;14.31;52.09
38530;BME280;24301;54.332;48.386;2023-05-15T15:09:03;99351.81;;;14.25;52.31
38530;BME280;24301;54.332;48.386;2023-05-15T15:11:29;99361.03;;;14.46;51.87
38530;BME280;24301;54.332;48.386;2023-05-15T15:13:55;99363.69;;;14.46;51.23
38530;BME280;24301;54.332;48.386;2023-05-15T15:16:20;99357.47;;;14.47;51.28
38530;BME280;24301;54.332;48.386;2023-05-15T15:18:46;99356.38;;;14.56;51.07
38530;BME280;24301;54.332;48.386;2023-05-15T15:21:12;99340.59;;;14.53;50.12
38530;BME280;24301;54.332;48.386;2023-05-15T15:23:38;99332.88;;;14.44;49.47
38530;BME280;24301;54.332;48.386;2023-05-15T15:26:04;99333.03;;;14.37;49.35
38530;BME280;24301;54.332;48.386;2023-05-15T15:28:30;99335.03;;;14.28;49.17
38530;BME280;24301;54.332;48.386;2023-05-15T15:31:01;99340.31;;;14.28;49.25
38530;BME280;24301;54.332;48.386;2023-05-15T15:33:27;99343.00;;;14.26;49.14
38530;BME280;24301;54.332;48.386;2023-05-15T15:35:53;99338.75;;;14.20;49.13
38530;BME280;24301;54.332;48.386;2023-05-15T15:38:19;99329.16;;;14.15;48.96
38530;BME280;24301;54.332;48.386;2023-05-15T15:40:45;99338.81;;;14.17;49.34
38530;BME280;24301;54.332;48.386;2023-05-15T15:43:11;99335.34;;;14.15;49.44
38530;BME280;24301;54.332;48.386;2023-05-15T15:45:37;99338.84;;;14.16;49.42
38530;BME280;24301;54.332;48.386;2023-05-15T15:48:05;99336.28;;;14.13;49.50
38530;BME280;24301;54.332;48.386;2023-05-15T15:50:31;99339.00;;;14.08;49.50
38530;BME280;24301;54.332;48.386;2023-05-15T15:52:57;99343.38;;;14.11;49.29